createdAt,value
2022-12-01T00:02:17.688Z,3.79
2022-12-01T00:04:44.129Z,3.91
2022-12-01T00:07:10.865Z,3.90
2022-12-01T00:09:37.221Z,4.04
2022-12-01T00:12:03.734Z,4.13
2022-12-01T00:14:30.063Z,3.85
2022-12-01T00:16:56.422Z,3.99
2022-12-01T00:19:26.376Z,4.10
2022-12-01T00:21:52.738Z,4.15
2022-12-01T00:24:19.117Z,3.88
2022-12-01T00:26:45.496Z,3.92
2022-12-01T00:29:11.863Z,3.90
2022-12-01T00:31:38.298Z,4.11
2022-12-01T00:34:08.214Z,4.00
2022-12-01T00:36:37.538Z,3.92
2022-12-01T00:39:03.881Z,3.92
2022-12-01T00:41:30.220Z,3.80
2022-12-01T00:43:56.572Z,3.83
2022-12-01T00:46:22.984Z,3.94
2022-12-01T00:48:49.368Z,3.63
2022-12-01T00:51:15.725Z,3.91
2022-12-01T00:53:42.032Z,3.69
2022-12-01T00:56:08.346Z,3.71
2022-12-01T00:58:34.687Z,3.60
2022-12-01T01:01:02.231Z,3.56
2022-12-01T01:03:29.985Z,3.57
2022-12-01T01:05:56.439Z,3.48
2022-12-01T01:08:22.807Z,3.45
2022-12-01T01:10:49.398Z,3.81
2022-12-01T01:13:16.525Z,3.54
2022-12-01T01:15:42.878Z,3.60
2022-12-01T01:18:11.305Z,3.95
2022-12-01T01:20:37.655Z,3.97
2022-12-01T01:23:03.961Z,3.81
2022-12-01T01:25:32.413Z,3.85
2022-12-01T01:27:58.717Z,3.63
2022-12-01T01:30:25.147Z,3.64
2022-12-01T01:32:51.489Z,3.92
2022-12-01T01:35:17.881Z,3.55
2022-12-01T01:37:44.206Z,3.70
2022-12-01T01:40:10.952Z,3.70
2022-12-01T01:42:37.298Z,3.85
2022-12-01T01:45:03.961Z,3.70
2022-12-01T01:47:34.636Z,3.67
2022-12-01T01:50:06.776Z,3.71
2022-12-01T01:52:42.918Z,3.79
2022-12-01T01:55:09.606Z,3.71
2022-12-01T01:57:36.258Z,3.77
2022-12-01T02:00:07.697Z,3.84
2022-12-01T02:02:37.398Z,3.75
2022-12-01T02:05:03.898Z,3.40
2022-12-01T02:07:30.592Z,3.63
2022-12-01T02:09:57.602Z,3.86
2022-12-01T02:12:40.262Z,3.37
2022-12-01T02:15:42.239Z,3.60
2022-12-01T02:18:32.492Z,3.47
2022-12-01T02:21:43.192Z,3.54
2022-12-01T02:24:27.452Z,3.61
2022-12-01T02:27:06.906Z,3.73
2022-12-01T02:29:48.550Z,3.40
2022-12-01T02:32:33.537Z,3.36
2022-12-01T02:35:28.605Z,3.65
2022-12-01T02:38:10.007Z,3.40
2022-12-01T02:41:05.303Z,3.48
2022-12-01T02:43:41.929Z,3.51
2022-12-01T02:46:36.706Z,3.47
2022-12-01T02:49:11.281Z,3.32
2022-12-01T02:51:41.103Z,3.60
2022-12-01T02:54:08.350Z,3.50
2022-12-01T02:56:34.698Z,3.52
2022-12-01T02:59:01.003Z,3.57
2022-12-01T03:01:55.306Z,3.44
2022-12-01T03:04:55.932Z,3.55
2022-12-01T03:07:37.398Z,3.37
2022-12-01T03:10:30.150Z,3.63
2022-12-01T03:13:25.640Z,3.75
2022-12-01T03:16:04.607Z,3.86
2022-12-01T03:18:50.666Z,3.82
2022-12-01T03:21:34.731Z,3.68
2022-12-01T03:24:05.517Z,3.92
2022-12-01T03:26:36.156Z,3.91
2022-12-01T03:29:08.096Z,3.82
2022-12-01T03:31:41.496Z,3.75
2022-12-01T03:34:35.497Z,3.83
2022-12-01T03:37:07.008Z,3.81
2022-12-01T03:39:37.935Z,3.87
2022-12-01T03:42:27.891Z,3.84
2022-12-01T03:44:58.947Z,3.80
2022-12-01T03:47:29.998Z,3.81
2022-12-01T03:49:57.066Z,3.55
2022-12-01T03:52:32.376Z,3.59
2022-12-01T03:55:12.901Z,3.68
2022-12-01T03:57:55.536Z,3.64
2022-12-01T04:00:23.434Z,3.65
2022-12-01T04:02:56.294Z,3.84
2022-12-01T04:05:25.470Z,3.71
2022-12-01T04:07:52.875Z,3.71
2022-12-01T04:10:19.280Z,3.78
2022-12-01T04:12:45.740Z,3.68
2022-12-01T04:15:13.662Z,3.66
2022-12-01T04:17:41.505Z,3.60
2022-12-01T04:20:08.242Z,3.30
2022-12-01T04:22:34.795Z,3.48
2022-12-01T04:25:01.116Z,3.26
2022-12-01T04:27:27.499Z,3.48
2022-12-01T04:29:53.818Z,3.61
2022-12-01T04:32:20.198Z,3.57
2022-12-01T04:34:46.529Z,3.57
2022-12-01T04:37:12.866Z,3.52
2022-12-01T04:39:39.391Z,3.60
2022-12-01T04:42:05.750Z,3.37
2022-12-01T04:44:34.982Z,3.59
2022-12-01T04:47:02.679Z,3.69
2022-12-01T04:49:29.085Z,3.66
2022-12-01T04:51:55.456Z,3.59
2022-12-01T04:54:22.126Z,3.48
2022-12-01T04:56:48.478Z,3.40
2022-12-01T04:59:14.856Z,3.42
2022-12-01T05:01:41.303Z,3.36
2022-12-01T05:04:07.684Z,3.26
2022-12-01T05:06:34.012Z,3.16
2022-12-01T05:09:01.673Z,3.32
2022-12-01T05:11:29.839Z,3.60
2022-12-01T05:13:56.198Z,3.48
2022-12-01T05:16:32.578Z,3.17
2022-12-01T05:19:01.796Z,3.34
2022-12-01T05:21:28.114Z,3.23
2022-12-01T05:23:54.424Z,3.62
2022-12-01T05:26:20.767Z,3.39
2022-12-01T05:28:47.086Z,3.37
2022-12-01T05:31:13.428Z,3.45
2022-12-01T05:33:39.781Z,3.68
2022-12-01T05:36:06.369Z,3.40
2022-12-01T05:38:32.666Z,3.43
2022-12-01T05:40:58.992Z,3.24
2022-12-01T05:43:29.049Z,3.45
2022-12-01T05:45:57.011Z,3.79
2022-12-01T05:48:23.998Z,3.83
2022-12-01T05:50:50.342Z,3.83
2022-12-01T05:53:17.403Z,3.79
2022-12-01T05:55:44.089Z,3.75
2022-12-01T05:58:10.955Z,3.59
2022-12-01T06:00:45.429Z,3.59
2022-12-01T06:03:12.612Z,3.26
2022-12-01T06:05:39.084Z,3.17
2022-12-01T06:08:05.558Z,3.02
2022-12-01T06:10:31.945Z,3.33
2022-12-01T06:12:58.272Z,3.37
2022-12-01T06:15:24.622Z,3.08
2022-12-01T06:17:50.939Z,3.17
2022-12-01T06:20:17.506Z,3.33
2022-12-01T06:22:43.853Z,3.17
2022-12-01T06:25:10.853Z,3.24
2022-12-01T06:27:37.426Z,3.54
2022-12-01T06:30:04.661Z,3.26
2022-12-01T06:32:30.964Z,3.00
2022-12-01T06:34:57.272Z,3.13
2022-12-01T06:37:23.625Z,3.40
2022-12-01T06:39:50.134Z,3.40
2022-12-01T06:42:16.657Z,3.06
2022-12-01T06:44:42.984Z,3.11
2022-12-01T06:47:09.307Z,3.20
2022-12-01T06:49:35.782Z,3.11
2022-12-01T06:52:02.126Z,3.06
2022-12-01T06:54:28.534Z,3.04
2022-12-01T06:56:54.893Z,3.19
2022-12-01T06:59:21.522Z,3.39
2022-12-01T07:01:48.408Z,3.59
2022-12-01T07:04:14.794Z,3.27
2022-12-01T07:06:41.112Z,3.00
2022-12-01T07:09:07.425Z,3.15
2022-12-01T07:11:33.763Z,3.05
2022-12-01T07:14:00.074Z,3.35
2022-12-01T07:16:26.476Z,3.27
2022-12-01T07:18:52.808Z,3.45
2022-12-01T07:21:19.145Z,3.06
2022-12-01T07:23:45.629Z,3.14
2022-12-01T07:26:14.300Z,3.07
2022-12-01T07:28:41.207Z,3.04
2022-12-01T07:31:13.815Z,2.94
2022-12-01T07:33:40.505Z,3.19
2022-12-01T07:36:07.770Z,3.09
2022-12-01T07:38:35.199Z,3.00
2022-12-01T07:41:06.815Z,3.18
2022-12-01T07:43:34.190Z,2.91
2022-12-01T07:46:05.590Z,3.27
2022-12-01T07:48:32.038Z,3.24
2022-12-01T07:50:58.356Z,3.37
2022-12-01T07:53:24.746Z,3.28
2022-12-01T07:55:51.052Z,3.54
2022-12-01T07:58:17.556Z,3.37
2022-12-01T08:00:43.919Z,3.51
2022-12-01T08:03:10.345Z,3.53
2022-12-01T08:05:36.781Z,3.69
2022-12-01T08:08:03.327Z,3.84
2022-12-01T08:10:29.691Z,3.75
2022-12-01T08:12:56.048Z,3.46
2022-12-01T08:15:22.631Z,3.51
2022-12-01T08:17:49.034Z,2.99
2022-12-01T08:20:19.551Z,2.97
2022-12-01T08:22:48.768Z,2.96
2022-12-01T08:25:15.167Z,3.06
2022-12-01T08:27:41.498Z,3.09
2022-12-01T08:30:08.576Z,3.25
2022-12-01T08:32:34.975Z,3.02
2022-12-01T08:35:01.278Z,2.93
2022-12-01T08:37:27.590Z,2.80
2022-12-01T08:39:53.902Z,2.82
2022-12-01T08:42:20.224Z,3.22
2022-12-01T08:44:46.603Z,3.36
2022-12-01T08:47:17.306Z,3.20
2022-12-01T08:49:45.117Z,3.11
2022-12-01T08:52:11.425Z,3.08
2022-12-01T08:54:37.805Z,3.00
2022-12-01T08:57:04.300Z,3.36
2022-12-01T08:59:30.597Z,3.15
2022-12-01T09:01:56.974Z,3.22
2022-12-01T09:04:25.155Z,3.06
2022-12-01T09:06:53.533Z,2.94
2022-12-01T09:09:26.248Z,2.90
2022-12-01T09:11:52.691Z,3.11
2022-12-01T09:14:20.619Z,3.08
2022-12-01T09:16:48.340Z,3.42
2022-12-01T09:19:19.197Z,3.62
2022-12-01T09:21:49.962Z,3.63
2022-12-01T09:24:16.378Z,4.02
2022-12-01T09:26:42.766Z,3.70
2022-12-01T09:29:12.281Z,3.60
2022-12-01T09:31:38.824Z,3.25
2022-12-01T09:34:08.588Z,3.53
2022-12-01T09:36:36.342Z,3.77
2022-12-01T09:39:03.044Z,3.85
2022-12-01T09:41:41.847Z,3.63
2022-12-01T09:44:11.138Z,3.42
2022-12-01T09:46:52.803Z,3.74
2022-12-01T09:49:24.161Z,3.38
2022-12-01T09:51:52.586Z,3.25
2022-12-01T09:54:19.010Z,3.54
2022-12-01T09:56:51.045Z,3.89
2022-12-01T09:59:21.701Z,3.85
2022-12-01T10:01:52.536Z,3.66
2022-12-01T10:04:41.476Z,3.51
2022-12-01T10:07:25.493Z,3.56
2022-12-01T10:09:54.935Z,3.19
2022-12-01T10:12:23.745Z,3.26
2022-12-01T10:14:50.743Z,3.29
2022-12-01T10:17:28.032Z,3.71
2022-12-01T10:20:02.907Z,3.50
2022-12-01T10:22:31.912Z,3.07
2022-12-01T10:25:11.292Z,3.27
2022-12-01T10:27:47.772Z,3.49
2022-12-01T10:30:16.585Z,3.45
2022-12-01T10:32:59.059Z,3.92
2022-12-01T10:35:27.884Z,3.24
2022-12-01T10:37:58.853Z,3.28
2022-12-01T10:40:27.033Z,3.50
2022-12-01T10:42:53.972Z,3.30
2022-12-01T10:45:24.428Z,3.70
2022-12-01T10:48:16.811Z,3.56
2022-12-01T10:50:46.185Z,3.69
2022-12-01T10:53:34.765Z,3.76
2022-12-01T10:56:09.922Z,3.79
2022-12-01T10:58:47.208Z,3.62
2022-12-01T11:01:33.466Z,3.37
2022-12-01T11:04:07.651Z,3.05
2022-12-01T11:06:34.633Z,2.86
2022-12-01T11:09:07.012Z,3.45
2022-12-01T11:11:39.349Z,3.17
2022-12-01T11:14:16.927Z,3.02
2022-12-01T11:16:45.777Z,3.34
2022-12-01T11:19:31.067Z,3.30
2022-12-01T11:21:58.237Z,3.31
2022-12-01T11:24:27.321Z,3.44
2022-12-01T11:26:54.117Z,3.56
2022-12-01T11:29:34.434Z,3.52
2022-12-01T11:32:02.346Z,3.17
2022-12-01T11:34:33.704Z,3.21
2022-12-01T11:37:07.009Z,3.06
2022-12-01T11:39:37.387Z,3.14
2022-12-01T11:42:28.341Z,3.21
2022-12-01T11:45:03.154Z,3.46
2022-12-01T11:47:29.375Z,3.71
2022-12-01T11:50:01.329Z,3.53
2022-12-01T11:52:34.631Z,3.48
2022-12-01T11:55:13.018Z,3.43
2022-12-01T11:57:43.517Z,3.42
2022-12-01T12:00:21.456Z,3.53
2022-12-01T12:03:16.118Z,3.73
2022-12-01T12:05:52.792Z,3.94
2022-12-01T12:08:34.495Z,3.72
2022-12-01T12:11:16.693Z,3.90
2022-12-01T12:13:42.947Z,3.58
2022-12-01T12:16:15.208Z,3.68
2022-12-01T12:19:06.582Z,3.51
2022-12-01T12:21:51.255Z,3.77
2022-12-01T12:24:32.103Z,4.03
2022-12-01T12:27:10.675Z,3.61
2022-12-01T12:29:54.277Z,3.76
2022-12-01T12:33:00.717Z,4.02
2022-12-01T12:35:44.463Z,4.24
2022-12-01T12:38:46.403Z,4.25
2022-12-01T12:41:31.375Z,3.83
2022-12-01T12:44:35.377Z,3.55
2022-12-01T12:47:24.962Z,3.85
2022-12-01T12:50:00.374Z,3.98
2022-12-01T12:52:33.469Z,3.44
2022-12-01T12:55:12.074Z,3.10
2022-12-01T12:57:45.221Z,3.55
2022-12-01T13:00:26.820Z,3.70
2022-12-01T13:03:14.746Z,3.94
2022-12-01T13:05:45.187Z,3.49
2022-12-01T13:08:17.402Z,3.53
2022-12-01T13:11:22.860Z,3.63
2022-12-01T13:14:20.338Z,3.88
2022-12-01T13:16:50.264Z,3.94
2022-12-01T13:19:18.621Z,3.90
2022-12-01T13:21:48.186Z,3.66
2022-12-01T13:24:23.027Z,3.57
2022-12-01T13:26:56.956Z,3.39
2022-12-01T13:29:24.838Z,3.49
2022-12-01T13:31:53.068Z,3.69
2022-12-01T13:34:25.139Z,3.94
2022-12-01T13:36:54.060Z,3.78
2022-12-01T13:39:26.299Z,3.74
2022-12-01T13:42:02.261Z,3.49
2022-12-01T13:44:33.907Z,3.16
2022-12-01T13:47:12.218Z,3.15
2022-12-01T13:49:40.582Z,2.94
2022-12-01T13:52:22.140Z,3.04
2022-12-01T13:55:06.855Z,3.14
2022-12-01T13:57:35.808Z,3.34
2022-12-01T14:00:05.702Z,2.91
2022-12-01T14:02:35.393Z,3.04
2022-12-01T14:05:22.022Z,3.44
2022-12-01T14:07:53.541Z,2.94
2022-12-01T14:10:25.786Z,2.94
2022-12-01T14:12:56.367Z,3.06
2022-12-01T14:15:30.404Z,3.23
2022-12-01T14:18:22.002Z,3.36
2022-12-01T14:20:49.111Z,3.41
2022-12-01T14:23:18.375Z,3.65
2022-12-01T14:25:59.215Z,3.50
2022-12-01T14:28:54.918Z,3.23
2022-12-01T14:31:25.486Z,3.07
2022-12-01T14:33:58.541Z,3.48
2022-12-01T14:36:34.030Z,2.81
2022-12-01T14:39:06.107Z,2.70
2022-12-01T14:41:48.069Z,2.75
2022-12-01T14:44:21.037Z,2.67
2022-12-01T14:46:54.187Z,2.97
2022-12-01T14:49:25.542Z,2.79
2022-12-01T14:52:00.483Z,2.74
2022-12-01T14:54:32.445Z,2.59
2022-12-01T14:57:07.371Z,2.64
2022-12-01T14:59:35.539Z,2.48
2022-12-01T15:02:07.723Z,2.53
2022-12-01T15:04:55.066Z,2.42
2022-12-01T15:07:22.805Z,2.37
2022-12-01T15:09:59.522Z,2.47
2022-12-01T15:12:27.589Z,2.37
2022-12-01T15:14:54.079Z,2.36
2022-12-01T15:17:32.770Z,2.26
2022-12-01T15:19:59.319Z,2.26
2022-12-01T15:22:30.663Z,2.29
2022-12-01T15:25:29.613Z,2.45
2022-12-01T15:28:28.850Z,2.20
2022-12-01T15:30:55.736Z,2.26
2022-12-01T15:33:28.317Z,2.17
2022-12-01T15:35:56.266Z,2.30
2022-12-01T15:38:26.856Z,2.16
2022-12-01T15:43:41.745Z,2.01
2022-12-01T15:46:15.971Z,2.43
2022-12-01T15:48:42.725Z,2.26
2022-12-01T15:51:24.421Z,2.54
2022-12-01T15:53:53.380Z,2.53
2022-12-01T15:56:29.417Z,2.30
2022-12-01T15:59:09.413Z,2.34
2022-12-01T16:01:36.672Z,2.43
2022-12-01T16:04:07.231Z,1.99
2022-12-01T16:06:36.638Z,2.29
2022-12-01T16:09:18.549Z,2.10
2022-12-01T16:12:18.548Z,1.99
2022-12-01T16:14:55.767Z,2.30
2022-12-01T16:17:23.747Z,2.26
2022-12-01T16:20:18.960Z,1.93
2022-12-01T16:22:48.216Z,2.08
2022-12-01T16:25:34.970Z,2.26
2022-12-01T16:28:02.666Z,2.10
2022-12-01T16:30:36.052Z,1.92
2022-12-01T16:33:05.212Z,1.66
2022-12-01T16:35:33.338Z,1.78
2022-12-01T16:38:13.035Z,1.88
2022-12-01T16:40:41.658Z,1.85
2022-12-01T16:43:13.703Z,1.68
2022-12-01T16:45:40.108Z,1.60
2022-12-01T16:48:09.444Z,1.75
2022-12-01T16:50:36.349Z,1.87
2022-12-01T16:53:02.733Z,1.84
2022-12-01T16:55:50.990Z,1.63
2022-12-01T16:58:17.838Z,1.64
2022-12-01T17:00:44.515Z,1.41
2022-12-01T17:03:11.847Z,1.61
2022-12-01T17:05:38.321Z,1.48
2022-12-01T17:08:05.599Z,1.55
2022-12-01T17:10:32.070Z,1.51
2022-12-01T17:12:58.367Z,1.64
2022-12-01T17:15:24.739Z,1.52
2022-12-01T17:17:51.024Z,1.49
2022-12-01T17:20:17.605Z,1.41
2022-12-01T17:22:43.948Z,1.49
2022-12-01T17:25:10.296Z,1.63
2022-12-01T17:27:38.050Z,1.56
2022-12-01T17:30:05.941Z,1.85
2022-12-01T17:32:32.315Z,1.80
2022-12-01T17:34:58.665Z,1.58
2022-12-01T17:37:25.008Z,1.40
2022-12-01T17:39:51.311Z,1.53
2022-12-01T17:42:17.632Z,1.52
2022-12-01T17:44:43.997Z,1.76
2022-12-01T17:47:10.476Z,1.75
2022-12-01T17:49:37.371Z,1.66
2022-12-01T17:52:04.623Z,1.78
2022-12-01T17:54:31.246Z,1.61
2022-12-01T17:56:57.619Z,1.47
2022-12-01T17:59:24.006Z,1.51
2022-12-01T18:01:50.423Z,1.49
2022-12-01T18:04:16.768Z,1.45
2022-12-01T18:06:43.051Z,1.28
2022-12-01T18:18:50.533Z,1.38
2022-12-01T18:21:19.181Z,1.42
2022-12-01T18:23:50.212Z,1.57
2022-12-01T18:26:17.245Z,1.75
2022-12-01T18:28:44.323Z,1.72
2022-12-01T18:31:14.364Z,1.76
2022-12-01T18:33:42.107Z,1.85
2022-12-01T18:36:17.720Z,1.58
2022-12-01T18:38:44.588Z,1.72
2022-12-01T18:41:10.976Z,1.39
2022-12-01T18:43:37.273Z,1.52
2022-12-01T18:46:05.702Z,1.51
2022-12-01T18:48:33.157Z,1.60
2022-12-01T18:51:07.189Z,1.81
2022-12-01T18:53:34.470Z,1.45
2022-12-01T18:56:05.660Z,1.44
2022-12-01T18:58:32.566Z,1.46
2022-12-01T19:00:59.972Z,1.57
2022-12-01T19:03:29.745Z,1.42
2022-12-01T19:05:56.078Z,1.37
2022-12-01T19:08:22.556Z,1.68
2022-12-01T19:11:02.803Z,1.45
2022-12-01T19:13:32.924Z,1.32
2022-12-01T19:16:04.496Z,1.45
2022-12-01T19:18:30.836Z,1.74
2022-12-01T19:21:01.133Z,1.85
2022-12-01T19:23:27.495Z,1.79
2022-12-01T19:25:53.807Z,1.75
2022-12-01T19:28:20.197Z,1.81
2022-12-01T19:30:48.306Z,1.74
2022-12-01T19:33:17.471Z,1.69
2022-12-01T19:35:43.775Z,1.66
2022-12-01T19:38:10.116Z,1.55
2022-12-01T19:40:37.552Z,1.66
2022-12-01T19:43:04.028Z,1.68
2022-12-01T19:45:30.382Z,1.73
2022-12-01T19:47:57.572Z,1.64
2022-12-01T19:50:23.911Z,1.67
2022-12-01T19:52:50.220Z,1.53
2022-12-01T19:55:16.562Z,1.61
2022-12-01T19:57:42.911Z,1.48
2022-12-01T20:00:10.039Z,1.53
2022-12-01T20:02:36.420Z,1.47
2022-12-01T20:05:02.793Z,1.65
2022-12-01T20:07:30.055Z,1.47
2022-12-01T20:09:56.403Z,1.44
2022-12-01T20:12:22.745Z,1.47
2022-12-01T20:14:49.445Z,1.23
2022-12-01T20:17:16.203Z,1.46
2022-12-01T20:19:42.578Z,1.19
2022-12-01T20:22:08.922Z,1.25
2022-12-01T20:24:35.370Z,1.41
2022-12-01T20:27:01.700Z,1.30
2022-12-01T20:29:29.764Z,1.48
2022-12-01T20:31:58.084Z,1.45
2022-12-01T20:34:27.754Z,1.58
2022-12-01T20:36:54.702Z,1.26
2022-12-01T20:39:21.228Z,1.49
2022-12-01T20:41:47.706Z,1.41
2022-12-01T20:44:16.144Z,1.56
2022-12-01T20:46:43.150Z,1.08
2022-12-01T20:49:09.454Z,1.28
2022-12-01T20:51:36.020Z,1.37
2022-12-01T20:54:27.952Z,1.30
2022-12-01T20:56:50.663Z,1.29
2022-12-01T20:59:17.016Z,1.25
2022-12-01T21:01:43.350Z,1.30
2022-12-01T21:04:09.651Z,1.10
2022-12-01T21:06:36.001Z,1.07
2022-12-01T21:09:04.058Z,1.04
2022-12-01T21:11:45.141Z,1.10
2022-12-01T21:14:36.441Z,1.12
2022-12-01T21:17:15.821Z,1.28
2022-12-01T21:19:54.031Z,1.25
2022-12-01T21:22:20.345Z,1.35
2022-12-01T21:24:50.321Z,1.18
2022-12-01T21:27:17.691Z,1.11
2022-12-01T21:29:46.633Z,1.08
2022-12-01T21:32:18.786Z,1.25
2022-12-01T21:34:48.994Z,1.07
2022-12-01T21:37:23.538Z,1.10
2022-12-01T21:39:51.886Z,0.99
2022-12-01T21:42:21.135Z,0.92
2022-12-01T21:44:48.241Z,1.05
2022-12-01T21:47:21.019Z,1.11
2022-12-01T21:49:50.813Z,1.00
2022-12-01T21:52:22.729Z,1.33
2022-12-01T21:54:49.890Z,1.57
2022-12-01T21:57:52.600Z,1.14
2022-12-01T22:00:36.419Z,1.33
2022-12-01T22:03:08.683Z,1.11
2022-12-01T22:05:39.022Z,1.00
2022-12-01T22:08:22.025Z,0.95
2022-12-01T22:10:55.777Z,0.92
2022-12-01T22:13:25.868Z,1.07
2022-12-01T22:15:53.671Z,1.16
2022-12-01T22:18:27.181Z,1.19
2022-12-01T22:20:54.007Z,1.24
2022-12-01T22:23:31.979Z,1.11
2022-12-01T22:25:58.311Z,1.02
2022-12-01T22:28:24.630Z,1.17
2022-12-01T22:30:52.186Z,1.05
2022-12-01T22:33:23.921Z,1.12
2022-12-01T22:35:52.472Z,1.04
2022-12-01T22:38:35.191Z,1.18
2022-12-01T22:41:20.744Z,1.13
2022-12-01T22:43:50.776Z,1.12
2022-12-01T22:46:34.663Z,1.45
2022-12-01T22:49:10.141Z,1.24
2022-12-01T22:51:50.744Z,1.39
2022-12-01T22:54:17.027Z,1.44
2022-12-01T22:56:53.731Z,1.51
2022-12-01T22:59:29.226Z,1.34
2022-12-01T23:02:00.864Z,1.19
2022-12-01T23:04:39.717Z,1.35
2022-12-01T23:07:29.387Z,1.41
2022-12-01T23:10:02.206Z,1.08
2022-12-01T23:12:33.494Z,1.09
2022-12-01T23:15:14.787Z,1.08
2022-12-01T23:17:41.232Z,1.07
2022-12-01T23:20:10.626Z,1.33
2022-12-01T23:22:38.426Z,1.19
2022-12-01T23:25:18.968Z,1.13
2022-12-01T23:27:48.194Z,1.23
2022-12-01T23:30:16.229Z,1.05
2022-12-01T23:32:43.689Z,1.25
2022-12-01T23:35:18.901Z,1.10
2022-12-01T23:37:47.843Z,1.03
2022-12-01T23:40:30.437Z,1.28
2022-12-01T23:43:14.598Z,1.32
2022-12-01T23:45:41.057Z,1.30
2022-12-01T23:48:21.923Z,1.11
2022-12-01T23:50:53.157Z,1.10
2022-12-01T23:53:29.164Z,0.98
2022-12-01T23:55:57.990Z,1.24
2022-12-01T23:58:24.340Z,1.31
